Terminal Aerodrome Forecast
Issued by NWS Charleston, WV

Current Version | Previous Version | Graphics & Text | Print | Product List | Glossary On
Versions: 1 2 3 4 5 6 7 8 9 10 11 12 13 14 15 16 17 18 19 20 21 22 23 24 25 26 27 28
723
FTUS41 KRLX 190538
TAFBKW
TAF
KBKW 190538Z 1906/2006 VRB03KT 6SM -SHRA OVC040
     FM190800 28004KT 6SM -SHRA OVC015
     FM191200 29005KT P6SM OVC007
     FM191600 31006KT P6SM BKN015
     FM192100 30006KT P6SM SCT020=

USA.gov is the U.S. government's official web portal to all federal, state and local government web resources and services.